LGRP/RHO METAR and TAF weather

Enter ICAO airport designator
Station Type Date Time Source
LGRP METAR 2021/05/17 22:50 UTC NOAA

LGRP 172250Z 23009KT CAVOK 19/16 Q1011 NOSIG


Station Type Date Time Source
LGRP Decoded METAR 2021/05/17 22:50 UTC NOAA

Rhodes Airport , Greece (LGRP) 36-24N 028-05E 11M
May 17, 2021 - 06:50 PM EDT / 2021.05.17 2250 UTC
Wind: from the SW (230 degrees) at 10 MPH (9 KT):0
Visibility: greater than 7 mile(s):0
Temperature: 66 F (19 C)
Dew Point: 60 F (16 C)
Relative Humidity: 82%
Pressure (altimeter): 29.85 in. Hg (1011 hPa)
ob: LGRP 172250Z 23009KT CAVOK 19/16 Q1011 NOSIG
cycle: 23

Station Type Date Time Source
LGRP TAF 2021/05/17 18:16 UTC NOAA

TAF LGRP 171700Z 1718/1818 26015KT 9999 FEW020
TEMPO 1806/1815 15010KT

Example: see airport list